Krasnodar, Russia
Current Conditions -  °F | °C
As of 9:30 AM on Thursday 27 Nov 2014 (Local Time) from URKK Reporting Station
Overcast Overcast  
Wind Chill: 27°   Ceiling: 900
Heat Index: 34°   Visibility: 6mi
Dew Point: 30°   Wind: 9mph
Humidity: 87%   Direction: 70°ENE
Pressure: 30.12"   Gusts: NA
Location:  45.03°N, 38.98°E
Report Text: URKK 270630Z 07004MPS 9999 OVC009 01/M01 Q1020 TEMPO BKN007 RMKQFE762 SC070
Loading
Personal Weather Stations






























Interactive Weather Map New forecast layout! Learn more

10-Day Weather Forecast

Advertisements
Track Severe Weather on mobile